createdAt,value
2019-03-18T00:00:31.353Z,968.66
2019-03-18T00:01:31.349Z,968.76
2019-03-18T00:02:31.346Z,968.80
2019-03-18T00:03:31.371Z,968.87
2019-03-18T00:04:31.362Z,968.94
2019-03-18T00:05:31.326Z,968.95
2019-03-18T00:06:31.321Z,968.97
2019-03-18T00:07:31.317Z,969.01
2019-03-18T00:08:31.342Z,969.03
2019-03-18T00:09:31.305Z,969.09
2019-03-18T00:10:31.298Z,969.04
2019-03-18T00:11:31.299Z,969.02
2019-03-18T00:12:31.285Z,969.03
2019-03-18T00:13:31.310Z,969.04
2019-03-18T00:14:31.309Z,969.02
2019-03-18T00:15:31.289Z,969.03
2019-03-18T00:16:31.272Z,969.06
2019-03-18T00:17:31.265Z,969.08
2019-03-18T00:18:31.285Z,969.02
2019-03-18T00:19:31.255Z,969.07
2019-03-18T00:20:31.241Z,969.06
2019-03-18T00:21:31.245Z,969.12
2019-03-18T00:22:31.238Z,969.07
2019-03-18T00:23:31.255Z,969.09
2019-03-18T00:24:31.225Z,969.14
2019-03-18T00:25:31.222Z,969.10
2019-03-18T00:26:31.218Z,969.13
2019-03-18T00:27:31.211Z,969.12
2019-03-18T00:28:31.236Z,969.11
2019-03-18T00:29:31.195Z,969.15
2019-03-18T00:30:31.194Z,969.19
2019-03-18T00:31:31.189Z,969.26
2019-03-18T00:32:31.181Z,969.38
2019-03-18T00:33:31.205Z,969.38
2019-03-18T00:34:31.201Z,969.48
2019-03-18T00:35:31.165Z,969.48
2019-03-18T00:36:31.157Z,969.50
2019-03-18T00:37:31.153Z,969.52
2019-03-18T00:38:31.172Z,969.55
2019-03-18T00:39:31.147Z,969.57
2019-03-18T00:40:31.169Z,969.54
2019-03-18T00:41:31.134Z,969.47
2019-03-18T00:42:31.128Z,969.53
2019-03-18T00:43:31.148Z,969.54
2019-03-18T00:44:31.118Z,969.54
2019-03-18T00:45:31.112Z,969.52
2019-03-18T00:46:31.106Z,969.47
2019-03-18T00:47:31.105Z,969.54
2019-03-18T00:48:31.129Z,969.45
2019-03-18T00:49:31.088Z,969.51
2019-03-18T00:50:31.089Z,969.51
2019-03-18T00:51:31.080Z,969.56
2019-03-18T00:52:31.072Z,969.59
2019-03-18T00:53:31.100Z,969.62
2019-03-18T00:54:31.103Z,969.63
2019-03-18T00:55:31.061Z,969.55
2019-03-18T00:56:31.060Z,969.64
2019-03-18T00:57:31.051Z,969.68
2019-03-18T00:58:31.085Z,969.59
2019-03-18T00:59:31.047Z,969.61
2019-03-18T01:00:31.029Z,969.63
2019-03-18T01:01:31.032Z,969.57
2019-03-18T01:02:31.026Z,969.47
2019-03-18T01:03:31.021Z,969.46
2019-03-18T01:04:31.046Z,969.50
2019-03-18T01:05:31.008Z,969.50
2019-03-18T01:06:31.004Z,969.53
2019-03-18T01:07:31.005Z,969.62
2019-03-18T01:08:31.048Z,969.66
2019-03-18T01:09:31.016Z,969.76
2019-03-18T01:10:30.986Z,969.78
2019-03-18T01:11:30.980Z,969.78
2019-03-18T01:12:30.984Z,969.75
2019-03-18T01:13:30.971Z,969.77
2019-03-18T01:14:30.995Z,969.65
2019-03-18T01:15:30.992Z,969.65
2019-03-18T01:16:30.953Z,969.62
2019-03-18T01:17:30.945Z,969.63
2019-03-18T01:18:30.945Z,969.64
2019-03-18T01:19:30.967Z,969.65
2019-03-18T01:20:30.929Z,969.63
2019-03-18T01:21:30.923Z,969.65
2019-03-18T01:22:30.921Z,969.61
2019-03-18T01:23:30.929Z,969.60
2019-03-18T01:24:30.938Z,969.61
2019-03-18T01:25:30.933Z,969.62
2019-03-18T01:26:30.904Z,969.62
2019-03-18T01:27:30.900Z,969.57
2019-03-18T01:28:30.904Z,969.54
2019-03-18T01:29:30.909Z,969.51
2019-03-18T01:30:30.883Z,969.49
2019-03-18T01:31:30.903Z,969.50
2019-03-18T01:32:30.871Z,969.47
2019-03-18T01:33:30.860Z,969.53
2019-03-18T01:34:30.891Z,969.54
2019-03-18T01:35:30.855Z,969.59
2019-03-18T01:36:30.848Z,969.57
2019-03-18T01:37:30.843Z,969.55
2019-03-18T01:38:30.837Z,969.60
2019-03-18T01:39:30.863Z,969.59
2019-03-18T01:40:30.856Z,969.65
2019-03-18T01:41:30.822Z,969.60
2019-03-18T01:42:30.819Z,969.61
2019-03-18T01:43:30.815Z,969.56
2019-03-18T01:44:30.833Z,969.58
2019-03-18T01:45:40.236Z,969.59
2019-03-18T01:46:30.798Z,969.62
2019-03-18T01:47:30.794Z,969.55
2019-03-18T01:48:30.784Z,969.53
2019-03-18T01:49:30.812Z,969.51
2019-03-18T01:50:30.775Z,969.53
2019-03-18T01:51:30.769Z,969.47
2019-03-18T01:52:30.759Z,969.44
2019-03-18T01:53:30.759Z,969.45
2019-03-18T01:54:30.783Z,969.49
2019-03-18T01:55:30.779Z,969.48
2019-03-18T01:56:30.743Z,969.50
2019-03-18T01:57:30.739Z,969.53
2019-03-18T01:58:30.736Z,969.55
2019-03-18T01:59:30.754Z,969.59
2019-03-18T02:00:30.720Z,969.58
2019-03-18T02:01:30.715Z,969.58
2019-03-18T02:02:30.707Z,969.62
2019-03-18T02:03:30.711Z,969.71
2019-03-18T02:04:30.730Z,969.71
2019-03-18T02:05:30.698Z,969.76
2019-03-18T02:06:30.685Z,969.80
2019-03-18T02:07:30.683Z,969.85
2019-03-18T02:08:30.670Z,969.82
2019-03-18T02:09:30.671Z,969.82
2019-03-18T02:10:30.696Z,969.81
2019-03-18T02:11:30.658Z,969.85
2019-03-18T02:12:30.658Z,969.86
2019-03-18T02:13:30.723Z,969.86
2019-03-18T02:14:30.643Z,969.89
2019-03-18T02:15:30.663Z,969.90
2019-03-18T02:16:30.629Z,969.89
2019-03-18T02:17:30.626Z,969.85
2019-03-18T02:18:30.618Z,969.90
2019-03-18T02:19:30.609Z,969.87
2019-03-18T02:20:30.638Z,969.90
2019-03-18T02:21:30.606Z,969.90
2019-03-18T02:22:30.599Z,969.88
2019-03-18T02:23:30.590Z,969.89
2019-03-18T02:24:30.587Z,969.96
2019-03-18T02:25:30.607Z,969.98
2019-03-18T02:26:30.626Z,969.98
2019-03-18T02:27:30.584Z,969.98
2019-03-18T02:28:30.581Z,970.01
2019-03-18T02:29:30.573Z,970.02
2019-03-18T02:30:30.571Z,970.00
2019-03-18T02:31:30.606Z,970.00
2019-03-18T02:32:30.559Z,970.02
2019-03-18T02:33:30.551Z,970.05
2019-03-18T02:34:30.653Z,970.05
2019-03-18T02:35:30.583Z,970.13
2019-03-18T02:36:30.536Z,970.13
2019-03-18T02:37:30.526Z,970.12
2019-03-18T02:38:30.526Z,970.15
2019-03-18T02:39:30.523Z,970.12
2019-03-18T02:40:30.546Z,970.15
2019-03-18T02:41:30.506Z,970.12
2019-03-18T02:42:30.506Z,970.10
2019-03-18T02:43:30.498Z,970.16
2019-03-18T02:44:30.487Z,970.16
2019-03-18T02:45:30.525Z,970.19
2019-03-18T02:46:30.488Z,970.28
2019-03-18T02:47:30.474Z,970.24
2019-03-18T02:48:30.497Z,970.29
2019-03-18T02:49:30.466Z,970.26
2019-03-18T02:50:30.501Z,970.21
2019-03-18T02:51:30.453Z,970.21
2019-03-18T02:52:30.448Z,970.16
2019-03-18T02:53:30.441Z,970.15
2019-03-18T02:54:30.438Z,970.06
2019-03-18T02:55:30.464Z,970.06
2019-03-18T02:56:30.558Z,970.04
2019-03-18T02:57:30.421Z,970.03
2019-03-18T02:58:30.426Z,970.01
2019-03-18T02:59:30.408Z,970.03
2019-03-18T03:00:30.436Z,970.01
2019-03-18T03:01:30.396Z,970.01
2019-03-18T03:02:30.395Z,970.02
2019-03-18T03:03:30.382Z,970.09
2019-03-18T03:04:30.382Z,970.11
2019-03-18T03:05:30.414Z,970.12
2019-03-18T03:06:30.372Z,970.05
2019-03-18T03:07:30.384Z,970.08
2019-03-18T03:08:30.357Z,970.12
2019-03-18T03:09:30.349Z,970.12
2019-03-18T03:10:30.379Z,970.07
2019-03-18T03:11:33.951Z,970.10
2019-03-18T03:12:30.334Z,970.07
2019-03-18T03:13:30.334Z,970.10
2019-03-18T03:14:30.325Z,970.17
2019-03-18T03:15:30.352Z,970.13
2019-03-18T03:16:30.320Z,970.19
2019-03-18T03:17:30.316Z,970.20
2019-03-18T03:18:30.299Z,970.32
2019-03-18T03:19:30.298Z,970.31
2019-03-18T03:20:30.327Z,970.30
2019-03-18T03:21:30.288Z,970.32
2019-03-18T03:22:30.284Z,970.33
2019-03-18T03:23:30.273Z,970.34
2019-03-18T03:24:30.271Z,970.27
2019-03-18T03:25:30.296Z,970.27
2019-03-18T03:26:30.985Z,970.29
2019-03-18T03:27:30.254Z,970.29
2019-03-18T03:28:30.244Z,970.27
2019-03-18T03:29:30.239Z,970.29
2019-03-18T03:30:30.298Z,970.31
2019-03-18T03:31:30.237Z,970.32
2019-03-18T03:32:30.229Z,970.26
2019-03-18T03:33:30.216Z,970.32
2019-03-18T03:34:30.214Z,970.30
2019-03-18T03:35:30.243Z,970.32
2019-03-18T03:36:30.237Z,970.33
2019-03-18T03:37:30.199Z,970.33
2019-03-18T03:38:30.202Z,970.33
2019-03-18T03:39:30.186Z,970.38
2019-03-18T03:40:30.214Z,970.37
2019-03-18T03:41:30.170Z,970.42
2019-03-18T03:42:30.166Z,970.36
2019-03-18T03:43:30.163Z,970.42
2019-03-18T03:44:30.152Z,970.42
2019-03-18T03:45:30.183Z,970.43
2019-03-18T03:46:42.415Z,970.42
2019-03-18T03:47:30.150Z,970.41
2019-03-18T03:48:30.133Z,970.38
2019-03-18T03:49:30.123Z,970.47
2019-03-18T03:50:30.163Z,970.47
2019-03-18T03:51:30.119Z,970.42
2019-03-18T03:52:30.115Z,970.39
2019-03-18T03:53:31.097Z,970.40
2019-03-18T03:54:30.102Z,970.41
2019-03-18T03:55:30.127Z,970.39
2019-03-18T03:56:30.125Z,970.39
2019-03-18T03:57:30.090Z,970.38
2019-03-18T03:58:30.092Z,970.39
2019-03-18T03:59:30.074Z,970.40
2019-03-18T04:00:30.073Z,970.39
2019-03-18T04:01:30.098Z,970.43
2019-03-18T04:02:30.065Z,970.39
2019-03-18T04:03:38.118Z,970.40
2019-03-18T04:04:30.046Z,970.42
2019-03-18T04:05:30.040Z,970.47
2019-03-18T04:06:30.070Z,970.44
2019-03-18T04:07:30.030Z,970.48
2019-03-18T04:08:30.044Z,970.47
2019-03-18T04:09:30.021Z,970.42
2019-03-18T04:10:30.011Z,970.46
2019-03-18T04:11:30.044Z,970.50
2019-03-18T04:12:30.007Z,970.46
2019-03-18T04:13:30.005Z,970.47
2019-03-18T04:14:29.993Z,970.48
2019-03-18T04:15:30.023Z,970.45
2019-03-18T04:16:29.986Z,970.58
2019-03-18T04:17:30.011Z,970.57
2019-03-18T04:18:29.981Z,970.57
2019-03-18T04:19:29.971Z,970.62
2019-03-18T04:20:29.962Z,970.57
2019-03-18T04:21:29.988Z,970.57
2019-03-18T04:22:29.950Z,970.55
2019-03-18T04:23:29.957Z,970.52
2019-03-18T04:24:29.944Z,970.56
2019-03-18T04:25:29.969Z,970.60
2019-03-18T04:26:29.930Z,970.56
2019-03-18T04:27:29.924Z,970.61
2019-03-18T04:28:29.918Z,970.62
2019-03-18T04:29:29.915Z,970.64
2019-03-18T04:30:29.939Z,970.69
2019-03-18T04:31:29.902Z,970.67
2019-03-18T04:32:29.904Z,970.69
2019-03-18T04:33:29.963Z,970.64
2019-03-18T04:34:29.885Z,970.67
2019-03-18T04:35:29.912Z,970.70
2019-03-18T04:36:29.872Z,970.71
2019-03-18T04:37:29.871Z,970.72
2019-03-18T04:38:29.866Z,970.72
2019-03-18T04:39:29.904Z,970.75
2019-03-18T04:40:29.894Z,970.70
2019-03-18T04:41:29.847Z,970.69
2019-03-18T04:42:29.844Z,970.70
2019-03-18T04:43:29.837Z,970.71
2019-03-18T04:44:29.838Z,970.68
2019-03-18T04:45:29.865Z,970.71
2019-03-18T04:46:29.819Z,970.71
2019-03-18T04:47:29.814Z,970.70
2019-03-18T04:48:29.806Z,970.72
2019-03-18T04:49:29.806Z,970.75
2019-03-18T04:50:29.844Z,970.70
2019-03-18T04:51:29.791Z,970.75
2019-03-18T04:52:29.787Z,970.76
2019-03-18T04:53:29.779Z,970.74
2019-03-18T04:54:29.776Z,970.76
2019-03-18T04:55:29.804Z,970.77
2019-03-18T04:56:29.780Z,970.79
2019-03-18T04:57:29.758Z,970.79
2019-03-18T04:58:29.754Z,970.81
2019-03-18T04:59:29.747Z,970.80
2019-03-18T05:00:29.779Z,970.76
2019-03-18T05:01:29.740Z,970.76
2019-03-18T05:02:29.730Z,970.78
2019-03-18T05:03:29.731Z,970.76
2019-03-18T05:04:29.727Z,970.74
2019-03-18T05:05:29.751Z,970.75
2019-03-18T05:06:29.712Z,970.76
2019-03-18T05:07:29.706Z,970.69
2019-03-18T05:08:29.694Z,970.65
2019-03-18T05:09:29.697Z,970.71
2019-03-18T05:10:29.722Z,970.73
2019-03-18T05:11:29.680Z,970.78
2019-03-18T05:12:29.673Z,970.76
2019-03-18T05:13:29.668Z,970.69
2019-03-18T05:14:29.666Z,970.81
2019-03-18T05:15:29.698Z,970.80
2019-03-18T05:16:29.682Z,970.80
2019-03-18T05:17:29.650Z,970.79
2019-03-18T05:18:29.647Z,970.81
2019-03-18T05:19:29.640Z,970.78
2019-03-18T05:20:29.669Z,970.77
2019-03-18T05:21:29.631Z,970.77
2019-03-18T05:22:29.657Z,970.78
2019-03-18T05:23:29.617Z,970.79
2019-03-18T05:24:29.624Z,970.80
2019-03-18T05:25:29.652Z,970.86
2019-03-18T05:26:29.607Z,970.82
2019-03-18T05:27:29.598Z,970.86
2019-03-18T05:28:29.589Z,970.82
2019-03-18T05:29:29.587Z,970.85
2019-03-18T05:30:29.614Z,970.81
2019-03-18T05:31:29.574Z,970.85
2019-03-18T05:32:29.566Z,970.82
2019-03-18T05:33:29.563Z,970.84
2019-03-18T05:34:29.552Z,970.83
2019-03-18T05:35:29.585Z,970.85
2019-03-18T05:36:29.542Z,970.84
2019-03-18T05:37:29.541Z,970.87
2019-03-18T05:38:29.534Z,970.83
2019-03-18T05:39:29.526Z,970.87
2019-03-18T05:40:29.556Z,970.88
2019-03-18T05:41:29.514Z,970.95
2019-03-18T05:42:29.517Z,970.88
2019-03-18T05:43:29.504Z,970.92
2019-03-18T05:44:29.536Z,970.93
2019-03-18T05:45:29.491Z,970.95
2019-03-18T05:46:29.740Z,970.97
2019-03-18T05:47:38.714Z,970.96
2019-03-18T05:48:29.477Z,971.05
2019-03-18T05:49:29.475Z,971.13
2019-03-18T05:50:29.500Z,971.10
2019-03-18T05:51:29.456Z,971.13
2019-03-18T05:52:29.460Z,971.20
2019-03-18T05:53:29.447Z,971.21
2019-03-18T05:54:29.442Z,971.25
2019-03-18T05:55:29.472Z,971.20
2019-03-18T05:56:29.431Z,971.22
2019-03-18T05:57:29.424Z,971.19
2019-03-18T05:58:29.486Z,971.21
2019-03-18T05:59:29.425Z,971.19
2019-03-18T06:00:29.444Z,971.25
2019-03-18T06:01:29.406Z,971.22
2019-03-18T06:02:29.437Z,971.22
2019-03-18T06:03:29.392Z,971.21
2019-03-18T06:04:29.387Z,971.20
2019-03-18T06:05:29.384Z,971.19
2019-03-18T06:06:29.475Z,971.16
2019-03-18T06:07:29.375Z,971.14
2019-03-18T06:08:29.368Z,971.13
2019-03-18T06:09:29.361Z,971.13
2019-03-18T06:10:29.358Z,971.10
2019-03-18T06:11:29.387Z,971.02
2019-03-18T06:12:29.348Z,971.13
2019-03-18T06:13:29.339Z,971.15
2019-03-18T06:14:29.335Z,971.19
2019-03-18T06:15:29.367Z,971.20
2019-03-18T06:16:29.333Z,971.25
2019-03-18T06:17:29.319Z,971.22
2019-03-18T06:18:29.314Z,971.23
2019-03-18T06:19:29.314Z,971.26
2019-03-18T06:20:29.336Z,971.22
2019-03-18T06:21:29.304Z,971.29
2019-03-18T06:22:29.295Z,971.25
2019-03-18T06:23:29.327Z,971.21
2019-03-18T06:24:29.283Z,971.19
2019-03-18T06:25:29.280Z,971.26
2019-03-18T06:26:29.310Z,971.24
2019-03-18T06:27:29.270Z,971.34
2019-03-18T06:28:29.268Z,971.39
2019-03-18T06:29:29.255Z,971.49
2019-03-18T06:30:29.256Z,971.44
2019-03-18T06:31:29.289Z,971.50
2019-03-18T06:32:29.246Z,971.51
2019-03-18T06:33:29.243Z,971.56
2019-03-18T06:34:29.245Z,971.60
2019-03-18T06:35:29.268Z,971.60
2019-03-18T06:36:29.225Z,971.71
2019-03-18T06:37:29.227Z,971.77
2019-03-18T06:38:29.222Z,971.73
2019-03-18T06:39:29.215Z,971.84
2019-03-18T06:40:29.246Z,971.80
2019-03-18T06:41:29.210Z,971.87
2019-03-18T06:42:29.208Z,971.90
2019-03-18T06:43:29.237Z,971.93
2019-03-18T06:44:29.201Z,971.94
2019-03-18T06:45:29.196Z,971.94
2019-03-18T06:46:29.225Z,971.92
2019-03-18T06:47:29.189Z,972.04
2019-03-18T06:48:29.179Z,972.01
2019-03-18T06:49:29.182Z,971.97
2019-03-18T06:50:29.179Z,972.00
2019-03-18T06:51:29.210Z,972.07
2019-03-18T06:52:29.170Z,972.08
2019-03-18T06:53:29.172Z,972.11
2019-03-18T06:54:29.165Z,972.08
2019-03-18T06:55:29.169Z,972.15
2019-03-18T06:56:29.200Z,972.14
2019-03-18T06:57:29.158Z,972.15
2019-03-18T06:58:29.984Z,972.12
2019-03-18T06:59:29.149Z,971.98
2019-03-18T07:00:29.146Z,972.14
2019-03-18T07:01:29.181Z,972.13
2019-03-18T07:02:29.147Z,972.21
2019-03-18T07:03:29.177Z,972.25
2019-03-18T07:04:29.146Z,972.25
2019-03-18T07:05:29.141Z,972.27
2019-03-18T07:06:29.137Z,972.35
2019-03-18T07:07:29.172Z,972.28
2019-03-18T07:08:29.128Z,972.33
2019-03-18T07:09:29.132Z,972.36
2019-03-18T07:10:29.130Z,972.29
2019-03-18T07:11:29.168Z,972.29
2019-03-18T07:12:29.984Z,972.28
2019-03-18T07:13:29.126Z,972.34
2019-03-18T07:14:29.126Z,972.30
2019-03-18T07:15:29.120Z,972.19
2019-03-18T07:16:29.157Z,972.09
2019-03-18T07:17:29.117Z,972.20
2019-03-18T07:18:29.112Z,972.19
2019-03-18T07:19:29.116Z,972.20
2019-03-18T07:20:29.114Z,972.15
2019-03-18T07:21:29.149Z,972.25
2019-03-18T07:22:29.109Z,972.24
2019-03-18T07:23:29.111Z,972.22
2019-03-18T07:24:29.113Z,972.24
2019-03-18T07:25:29.108Z,972.22
2019-03-18T07:26:29.143Z,972.31
2019-03-18T07:27:29.108Z,972.28
2019-03-18T07:28:29.109Z,972.37
2019-03-18T07:29:29.103Z,972.32
2019-03-18T07:30:29.103Z,972.33
2019-03-18T07:31:29.138Z,972.41
2019-03-18T07:32:29.103Z,972.39
2019-03-18T07:33:29.103Z,972.38
2019-03-18T07:34:29.115Z,972.39
2019-03-18T07:35:29.095Z,972.34
2019-03-18T07:36:29.140Z,972.48
2019-03-18T07:37:29.103Z,972.47
2019-03-18T07:38:29.099Z,972.55
2019-03-18T07:39:29.097Z,972.36
2019-03-18T07:40:29.098Z,972.43
2019-03-18T07:41:29.132Z,972.65
2019-03-18T07:42:29.102Z,972.39
2019-03-18T07:43:29.096Z,972.65
2019-03-18T07:44:29.096Z,972.43
2019-03-18T07:45:29.095Z,972.54
2019-03-18T07:46:29.128Z,972.47
2019-03-18T07:47:29.092Z,972.45
2019-03-18T07:48:31.371Z,972.38
2019-03-18T07:49:29.095Z,972.44
2019-03-18T07:50:29.092Z,972.40
2019-03-18T07:51:29.127Z,972.45
2019-03-18T07:52:29.087Z,972.37
2019-03-18T07:53:29.096Z,972.38
2019-03-18T07:54:33.031Z,972.41
2019-03-18T07:55:29.091Z,972.31
2019-03-18T07:56:29.126Z,972.44
2019-03-18T07:57:29.085Z,972.38
2019-03-18T07:58:29.082Z,972.43
2019-03-18T07:59:29.081Z,972.42
2019-03-18T08:00:29.112Z,972.46
2019-03-18T08:01:29.078Z,972.40
2019-03-18T08:02:29.074Z,972.44
2019-03-18T08:03:29.074Z,972.45
2019-03-18T08:04:37.171Z,972.48
2019-03-18T08:05:29.101Z,972.50
2019-03-18T08:06:29.066Z,972.51
2019-03-18T08:07:29.058Z,972.55
2019-03-18T08:08:29.164Z,972.55
2019-03-18T08:09:29.054Z,972.57
2019-03-18T08:10:29.085Z,972.53
2019-03-18T08:11:29.056Z,972.59
2019-03-18T08:12:29.051Z,972.62
2019-03-18T08:13:29.041Z,972.63
2019-03-18T08:14:29.034Z,972.64
2019-03-18T08:15:29.067Z,972.57
2019-03-18T08:16:29.034Z,972.66
2019-03-18T08:17:29.037Z,972.67
2019-03-18T08:18:29.025Z,972.75
2019-03-18T08:19:29.022Z,972.73
2019-03-18T08:20:29.053Z,972.79
2019-03-18T08:21:29.016Z,972.74
2019-03-18T08:22:29.014Z,972.75
2019-03-18T08:23:29.008Z,972.79
2019-03-18T08:24:29.039Z,972.83
2019-03-18T08:25:29.001Z,972.81
2019-03-18T08:26:28.997Z,972.81
2019-03-18T08:27:28.994Z,972.79
2019-03-18T08:28:28.989Z,972.78
2019-03-18T08:29:29.027Z,972.81
2019-03-18T08:30:28.982Z,972.77
2019-03-18T08:31:28.980Z,972.83
2019-03-18T08:32:28.976Z,972.83
2019-03-18T08:33:28.970Z,972.82
2019-03-18T08:34:29.001Z,972.87
2019-03-18T08:35:28.969Z,972.86
2019-03-18T08:36:28.966Z,972.84
2019-03-18T08:37:28.956Z,972.87
2019-03-18T08:38:28.953Z,972.89
2019-03-18T08:39:28.990Z,972.86
2019-03-18T08:40:28.948Z,972.89
2019-03-18T08:41:28.947Z,972.91
2019-03-18T08:42:28.940Z,972.90
2019-03-18T08:43:28.936Z,972.86
2019-03-18T08:44:28.964Z,972.90
2019-03-18T08:45:28.939Z,972.90
2019-03-18T08:46:28.928Z,972.95
2019-03-18T08:47:28.923Z,972.87
2019-03-18T08:48:28.916Z,972.94
2019-03-18T08:49:28.948Z,973.02
2019-03-18T08:50:28.909Z,972.90
2019-03-18T08:51:29.488Z,972.89
2019-03-18T08:52:28.896Z,972.89
2019-03-18T08:53:28.905Z,972.96
2019-03-18T08:54:28.937Z,973.01
2019-03-18T08:55:28.888Z,973.03
2019-03-18T08:56:29.732Z,973.01
2019-03-18T08:57:28.888Z,973.06
2019-03-18T08:58:28.879Z,973.12
2019-03-18T08:59:28.915Z,973.17
2019-03-18T09:00:28.869Z,973.19
2019-03-18T09:01:28.871Z,973.20
2019-03-18T09:02:29.487Z,973.05
2019-03-18T09:03:28.849Z,973.17
2019-03-18T09:04:28.896Z,973.21
2019-03-18T09:05:28.859Z,973.19
2019-03-18T09:06:30.387Z,973.20
2019-03-18T09:07:28.848Z,973.24
2019-03-18T09:08:28.845Z,973.24
2019-03-18T09:09:30.860Z,973.23
2019-03-18T09:10:28.894Z,973.26
2019-03-18T09:11:30.828Z,973.31
2019-03-18T09:12:28.893Z,973.26
2019-03-18T09:13:28.869Z,973.22
2019-03-18T09:14:28.907Z,973.26
2019-03-18T09:15:28.823Z,973.26
2019-03-18T09:16:28.845Z,973.23
2019-03-18T09:17:28.811Z,973.30
2019-03-18T09:18:28.837Z,973.30
2019-03-18T09:19:28.846Z,973.30
2019-03-18T09:20:28.802Z,973.33
2019-03-18T09:21:28.840Z,973.32
2019-03-18T09:22:29.448Z,973.33
2019-03-18T09:23:28.805Z,973.25
2019-03-18T09:24:28.951Z,973.27
2019-03-18T09:25:28.791Z,973.33
2019-03-18T09:26:28.799Z,973.35
2019-03-18T09:27:28.790Z,973.31
2019-03-18T09:28:28.776Z,973.33
2019-03-18T09:29:28.814Z,973.33
2019-03-18T09:30:28.776Z,973.31
2019-03-18T09:31:28.816Z,973.31
2019-03-18T09:32:28.766Z,973.35
2019-03-18T09:33:28.760Z,973.47
2019-03-18T09:34:28.794Z,973.48
2019-03-18T09:35:28.757Z,973.45
2019-03-18T09:36:28.754Z,973.41
2019-03-18T09:37:28.749Z,973.43
2019-03-18T09:38:28.745Z,973.43
2019-03-18T09:39:28.779Z,973.49
2019-03-18T09:40:29.456Z,973.49
2019-03-18T09:41:28.739Z,973.57
2019-03-18T09:42:28.740Z,973.56
2019-03-18T09:43:28.731Z,973.53
2019-03-18T09:44:28.769Z,973.56
2019-03-18T09:45:28.727Z,973.59
2019-03-18T09:46:28.722Z,973.61
2019-03-18T09:47:28.720Z,973.56
2019-03-18T09:48:28.712Z,973.52
2019-03-18T09:49:28.750Z,973.55
2019-03-18T09:50:28.711Z,973.62
2019-03-18T09:51:28.706Z,973.61
2019-03-18T09:52:28.705Z,973.62
2019-03-18T09:53:28.738Z,973.58
2019-03-18T09:54:28.696Z,973.58
2019-03-18T09:55:28.726Z,973.63
2019-03-18T09:56:28.686Z,973.65
2019-03-18T09:57:28.683Z,973.62
2019-03-18T09:58:28.692Z,973.70
2019-03-18T09:59:28.718Z,973.71
2019-03-18T10:00:28.674Z,973.74
2019-03-18T10:01:28.674Z,973.74
2019-03-18T10:02:28.670Z,973.72
2019-03-18T10:03:28.658Z,973.77
2019-03-18T10:04:28.698Z,973.78
2019-03-18T10:05:28.662Z,973.76
2019-03-18T10:06:28.660Z,973.70
2019-03-18T10:07:28.657Z,973.80
2019-03-18T10:08:28.650Z,973.73
2019-03-18T10:09:28.681Z,973.83
2019-03-18T10:10:28.642Z,973.78
2019-03-18T10:11:28.646Z,973.86
2019-03-18T10:12:28.635Z,973.85
2019-03-18T10:13:28.631Z,973.74
2019-03-18T10:14:28.665Z,973.80
2019-03-18T10:15:28.625Z,973.84
2019-03-18T10:16:28.622Z,973.82
2019-03-18T10:17:28.619Z,973.81
2019-03-18T10:18:28.618Z,973.81
2019-03-18T10:19:33.398Z,973.92
2019-03-18T10:20:28.610Z,973.95
2019-03-18T10:21:28.610Z,973.87
2019-03-18T10:22:29.489Z,973.96
2019-03-18T10:23:28.601Z,973.93
2019-03-18T10:24:28.633Z,973.88
2019-03-18T10:25:28.630Z,973.87
2019-03-18T10:26:28.593Z,973.93
2019-03-18T10:27:28.598Z,973.91
2019-03-18T10:28:28.589Z,973.92
2019-03-18T10:29:28.586Z,973.92
2019-03-18T10:30:28.621Z,973.99
2019-03-18T10:31:28.580Z,973.91
2019-03-18T10:32:28.580Z,973.97
2019-03-18T10:33:28.577Z,973.95
2019-03-18T10:34:28.576Z,974.00
2019-03-18T10:35:28.609Z,974.03
2019-03-18T10:36:28.570Z,974.10
2019-03-18T10:37:28.574Z,974.14
2019-03-18T10:38:28.569Z,974.06
2019-03-18T10:39:28.565Z,974.04
2019-03-18T10:40:28.597Z,974.03
2019-03-18T10:41:28.557Z,974.08
2019-03-18T10:42:28.556Z,974.11
2019-03-18T10:43:28.552Z,974.09
2019-03-18T10:44:28.552Z,974.11
2019-03-18T10:45:28.589Z,974.18
2019-03-18T10:46:28.542Z,974.09
2019-03-18T10:47:28.612Z,974.11
2019-03-18T10:48:28.543Z,974.15
2019-03-18T10:49:28.540Z,974.13
2019-03-18T10:50:28.575Z,974.20
2019-03-18T10:51:28.540Z,974.20
2019-03-18T10:52:28.538Z,974.19
2019-03-18T10:53:28.557Z,974.25
2019-03-18T10:54:31.090Z,974.22
2019-03-18T10:55:28.567Z,974.21
2019-03-18T10:56:28.529Z,974.21
2019-03-18T10:57:28.522Z,974.21
2019-03-18T10:58:28.521Z,974.28
2019-03-18T10:59:28.514Z,974.27
2019-03-18T11:00:28.548Z,974.33
2019-03-18T11:01:28.517Z,974.20
2019-03-18T11:02:28.638Z,974.25
2019-03-18T11:03:28.518Z,974.20
2019-03-18T11:04:28.508Z,974.15
2019-03-18T11:05:28.542Z,974.18
2019-03-18T11:06:28.506Z,974.49
2019-03-18T11:07:28.504Z,974.21
2019-03-18T11:08:28.504Z,974.64
2019-03-18T11:09:28.504Z,974.13
2019-03-18T11:10:28.539Z,974.19
2019-03-18T11:11:28.501Z,974.09
2019-03-18T11:12:28.498Z,974.24
2019-03-18T11:13:28.500Z,974.18
2019-03-18T11:14:28.496Z,974.22
2019-03-18T11:15:28.546Z,974.23
2019-03-18T11:16:31.126Z,974.16
2019-03-18T11:17:28.493Z,974.21
2019-03-18T11:18:28.491Z,974.24
2019-03-18T11:19:28.504Z,974.17
2019-03-18T11:20:28.521Z,974.18
2019-03-18T11:21:28.484Z,974.20
2019-03-18T11:22:28.484Z,974.15
2019-03-18T11:23:28.486Z,974.21
2019-03-18T11:24:28.476Z,974.24
2019-03-18T11:25:28.515Z,974.17
2019-03-18T11:26:28.478Z,974.29
2019-03-18T11:27:28.472Z,974.21
2019-03-18T11:28:28.471Z,974.25
2019-03-18T11:29:28.468Z,974.59
2019-03-18T11:30:28.499Z,974.26
2019-03-18T11:31:28.467Z,974.22
2019-03-18T11:32:28.462Z,974.41
2019-03-18T11:33:28.675Z,974.55
2019-03-18T11:34:28.460Z,974.58
2019-03-18T11:35:28.495Z,974.61
2019-03-18T11:36:28.458Z,974.69
2019-03-18T11:37:28.455Z,974.67
2019-03-18T11:38:28.457Z,974.71
2019-03-18T11:39:28.463Z,974.61
2019-03-18T11:40:28.500Z,974.59
2019-03-18T11:41:28.463Z,974.68
2019-03-18T11:42:29.000Z,974.68
2019-03-18T11:43:28.471Z,974.64
2019-03-18T11:44:28.475Z,974.71
2019-03-18T11:45:28.518Z,974.69
2019-03-18T11:46:28.486Z,974.74
2019-03-18T11:47:28.528Z,974.47
2019-03-18T11:48:28.498Z,974.70
2019-03-18T11:49:39.155Z,974.34
2019-03-18T11:50:28.512Z,974.69
2019-03-18T11:51:28.548Z,974.68
2019-03-18T11:52:28.516Z,974.72
2019-03-18T11:53:28.523Z,974.71
2019-03-18T11:54:28.588Z,974.71
2019-03-18T11:55:28.583Z,974.69
2019-03-18T11:56:28.544Z,974.73
2019-03-18T11:57:28.582Z,974.79
2019-03-18T11:58:28.556Z,974.71
2019-03-18T11:59:28.562Z,974.34
2019-03-18T12:00:28.570Z,974.32
2019-03-18T12:01:28.608Z,974.27
2019-03-18T12:02:28.742Z,974.42
2019-03-18T12:03:28.590Z,974.30
2019-03-18T12:04:28.595Z,974.26
2019-03-18T12:05:28.644Z,974.19
2019-03-18T12:06:28.614Z,974.24
2019-03-18T12:07:28.651Z,974.32
2019-03-18T12:08:28.627Z,974.32
2019-03-18T12:09:28.628Z,974.34
2019-03-18T12:10:28.630Z,974.26
2019-03-18T12:11:28.664Z,974.34
2019-03-18T12:12:28.630Z,974.30
2019-03-18T12:13:28.640Z,974.30
2019-03-18T12:14:28.643Z,974.24
2019-03-18T12:15:28.648Z,974.28
2019-03-18T12:16:28.677Z,974.25
2019-03-18T12:17:28.693Z,974.24
2019-03-18T12:18:28.645Z,974.28
2019-03-18T12:19:28.646Z,974.28
2019-03-18T12:20:28.649Z,974.28
2019-03-18T12:21:28.687Z,974.26
2019-03-18T12:22:28.651Z,974.23
2019-03-18T12:23:28.651Z,974.25
2019-03-18T12:24:28.647Z,974.29
2019-03-18T12:25:28.652Z,974.29
2019-03-18T12:26:28.682Z,974.34
2019-03-18T12:27:28.645Z,974.32
2019-03-18T12:28:28.646Z,974.27